KPHL

Philadelphia International Airport

Philadelphia, Pennsylvania, USA
METAR KPHL 151554Z 05011KT 2SM -RA BR OVC003 10/09 A3010 RMK AO2 SFC VIS 3 SLP193 CIG 002V004 P0005 T01000094 $
Observed Flight Rules
Dec-15 @ 15:54 UTC (49 minutes ago) Instrument Flight Rules
Wind Visibility Clouds Conditions
50° at 11 knots 2 miles
  • Overcast at 300' AGL
  • Light Rain
  • Mist
Temperatures Readings Precipitation
Current 10°C / 50°F
Dewpoint 9°C / 48°F
Humidity 94%
Altimeter 30.1" Hg
Pressure 1019.3 hPa
Elevation 18
Current Rain 0.05
METAR KPHL 151554Z 05011KT 2SM -RA BR OVC003 10/09 A3010 RMK AO2 SFC VIS 3 SLP193 CIG 002V004 P0005 T01000094 $
Observed Flight Rules
Dec-15 @ 15:54 UTC
(49 minutes ago)
LIFR
Wind Visibility
50° at 11 knots 2 miles
Clouds
  • Overcast at 300' AGL
Conditions
  • Light Rain
  • Mist
Temperature Dewpoint
10°C / 50°F 9°C / 48°F
Humidity Altimeter Pressure
94% 30.1" Hg 1019.3 hPa
Current Rain
0.05